Feldkirch, Austria
Current Conditions -  °F | °C
As of 3:20 PM on Tuesday 21 Oct 2014 (Local Time) from LSZR Reporting Station
Rain Showers Rain Showers  
Wind Chill: 61°   Ceiling: 6000
Heat Index: 61°   Visibility: 6mi
Dew Point: 55°   Wind: 8mph
Humidity: 82%   Direction: 300°WNW
Pressure: 29.85"   Gusts: NA
Location:  47.25°N, 9.59°E
Report Text: LSZR 211320Z 30007KT 9999 VCSH SCT035 BKN060 16/13 Q1011 NOSIG RMK J
Loading
Personal Weather Stations






























Interactive Weather Map
Tropical Storm Tracking
New forecast layout! Learn more

10-Day Weather Forecast

Advertisements
Track Severe Weather on mobile